createdAt,value
2018-01-23T00:02:11.107Z,4.80
2018-01-23T00:04:39.665Z,4.90
2018-01-23T00:07:08.453Z,4.80
2018-01-23T00:09:36.810Z,4.80
2018-01-23T00:12:05.167Z,4.70
2018-01-23T00:14:33.563Z,4.80
2018-01-23T00:17:02.866Z,4.70
2018-01-23T00:19:31.246Z,4.70
2018-01-23T00:21:59.725Z,4.70
2018-01-23T00:24:28.076Z,4.70
2018-01-23T00:26:57.199Z,4.70
2018-01-23T00:29:25.915Z,4.70
2018-01-23T00:31:54.283Z,4.70
2018-01-23T00:34:22.639Z,4.70
2018-01-23T00:36:51.108Z,4.60
2018-01-23T00:39:19.479Z,4.70
2018-01-23T00:41:48.632Z,4.70
2018-01-23T00:44:17.113Z,4.70
2018-01-23T00:46:45.458Z,4.90
2018-01-23T00:49:13.810Z,4.80
2018-01-23T00:51:43.163Z,4.80
2018-01-23T00:54:11.558Z,4.80
2018-01-23T00:56:39.905Z,4.90
2018-01-23T00:59:08.338Z,4.90
2018-01-23T01:01:37.454Z,4.90
2018-01-23T01:04:05.804Z,4.90
2018-01-23T01:06:34.781Z,5.00
2018-01-23T01:09:03.181Z,5.10
2018-01-23T01:11:32.554Z,5.30
2018-01-23T01:14:01.122Z,5.30
2018-01-23T01:16:29.526Z,5.30
2018-01-23T01:18:57.916Z,5.30
2018-01-23T01:21:26.395Z,5.30
2018-01-23T01:23:55.515Z,5.20
2018-01-23T01:26:24.679Z,5.20
2018-01-23T01:28:53.251Z,5.20
2018-01-23T01:31:21.630Z,5.20
2018-01-23T01:33:49.988Z,5.20
2018-01-23T01:36:18.389Z,5.20
2018-01-23T01:38:46.742Z,5.20
2018-01-23T01:41:15.102Z,5.30
2018-01-23T01:43:43.996Z,5.20
2018-01-23T01:46:12.342Z,5.30
2018-01-23T01:48:53.752Z,5.20
2018-01-23T01:51:22.116Z,5.20
2018-01-23T01:53:51.243Z,5.10
2018-01-23T01:56:19.964Z,5.10
2018-01-23T01:58:48.320Z,5.10
2018-01-23T02:01:16.680Z,5.00
2018-01-23T02:03:45.064Z,5.00
2018-01-23T02:06:13.729Z,4.90
2018-01-23T02:08:42.415Z,4.90
2018-01-23T02:11:11.045Z,4.90
2018-01-23T02:13:39.391Z,4.90
2018-01-23T02:16:07.743Z,5.00
2018-01-23T02:18:37.180Z,5.10
2018-01-23T02:21:05.522Z,5.10
2018-01-23T02:23:34.646Z,5.20
2018-01-23T02:26:03.030Z,5.20
2018-01-23T02:28:31.564Z,5.20
2018-01-23T02:30:59.922Z,5.20
2018-01-23T02:33:28.327Z,5.10
2018-01-23T02:35:56.706Z,5.00
2018-01-23T02:38:25.816Z,4.90
2018-01-23T02:40:55.412Z,4.90
2018-01-23T02:43:23.780Z,4.80
2018-01-23T02:45:52.140Z,4.80
2018-01-23T02:48:20.836Z,4.90
2018-01-23T02:50:49.185Z,4.80
2018-01-23T02:53:17.561Z,4.80
2018-01-23T02:55:46.383Z,4.80
2018-01-23T02:58:14.726Z,4.80
2018-01-23T03:00:43.086Z,4.80
2018-01-23T03:03:11.501Z,4.80
2018-01-23T03:05:39.846Z,4.80
2018-01-23T03:08:08.190Z,4.80
2018-01-23T03:10:37.537Z,4.80
2018-01-23T03:13:05.911Z,4.80
2018-01-23T03:15:34.244Z,4.90
2018-01-23T03:18:03.473Z,4.80
2018-01-23T03:20:31.877Z,4.90
2018-01-23T03:23:01.014Z,4.90
2018-01-23T03:25:29.556Z,4.90
2018-01-23T03:27:57.907Z,4.90
2018-01-23T03:30:26.261Z,4.80
2018-01-23T03:32:55.439Z,4.80
2018-01-23T03:35:23.826Z,4.70
2018-01-23T03:37:52.169Z,4.70
2018-01-23T03:40:20.672Z,4.70
2018-01-23T03:42:49.070Z,4.60
2018-01-23T03:45:18.508Z,4.50
2018-01-23T03:47:46.882Z,4.50
2018-01-23T03:50:15.227Z,4.50
2018-01-23T03:52:43.566Z,4.50
2018-01-23T03:55:11.981Z,4.50
2018-01-23T03:57:40.349Z,4.40
2018-01-23T04:00:08.701Z,4.40
2018-01-23T04:02:37.116Z,4.40
2018-01-23T04:05:05.467Z,4.40
2018-01-23T04:07:33.822Z,4.40
2018-01-23T04:10:02.439Z,4.40
2018-01-23T04:12:31.074Z,4.40
2018-01-23T04:14:59.423Z,4.50
2018-01-23T04:17:29.465Z,4.50
2018-01-23T04:19:57.819Z,4.50
2018-01-23T04:22:26.195Z,4.50
2018-01-23T04:24:54.587Z,4.60
2018-01-23T04:27:23.703Z,4.60
2018-01-23T04:29:52.059Z,4.60
2018-01-23T04:32:21.321Z,4.60
2018-01-23T04:34:49.726Z,4.60
2018-01-23T04:37:18.082Z,4.60
2018-01-23T04:39:46.754Z,4.60
2018-01-23T04:42:15.114Z,4.60
2018-01-23T04:44:43.454Z,4.60
2018-01-23T04:47:12.829Z,4.60
2018-01-23T04:49:41.187Z,4.50
2018-01-23T04:52:09.546Z,4.50
2018-01-23T04:54:38.315Z,4.50
2018-01-23T04:57:07.435Z,4.50
2018-01-23T04:59:36.717Z,4.60
2018-01-23T05:02:05.188Z,4.50
2018-01-23T05:04:34.293Z,4.50
2018-01-23T05:07:03.403Z,4.60
2018-01-23T05:09:31.975Z,4.60
2018-01-23T05:12:00.351Z,4.60
2018-01-23T05:14:28.887Z,4.60
2018-01-23T05:16:57.366Z,4.60
2018-01-23T05:19:25.713Z,4.60
2018-01-23T05:21:54.090Z,4.60
2018-01-23T05:24:22.873Z,4.60
2018-01-23T05:26:51.228Z,4.60
2018-01-23T05:29:19.622Z,4.60
2018-01-23T05:31:48.246Z,4.60
2018-01-23T05:34:16.595Z,4.60
2018-01-23T05:36:44.964Z,4.50
2018-01-23T05:39:13.453Z,4.50
2018-01-23T05:41:41.800Z,4.40
2018-01-23T05:44:10.921Z,4.40
2018-01-23T05:46:39.638Z,4.40
2018-01-23T05:49:08.143Z,4.40
2018-01-23T05:51:36.512Z,4.50
2018-01-23T05:54:05.292Z,4.50
2018-01-23T05:56:33.649Z,4.50
2018-01-23T05:59:02.002Z,4.50
2018-01-23T06:01:30.638Z,4.50
2018-01-23T06:03:58.993Z,4.50
2018-01-23T06:06:27.357Z,4.40
2018-01-23T06:08:55.745Z,4.40
2018-01-23T06:11:24.160Z,4.40
2018-01-23T06:13:52.797Z,4.40
2018-01-23T06:16:21.389Z,4.40
2018-01-23T06:18:49.757Z,4.40
2018-01-23T06:21:18.128Z,4.40
2018-01-23T06:23:46.535Z,4.40
2018-01-23T06:26:14.914Z,4.50
2018-01-23T06:28:43.283Z,4.40
2018-01-23T06:31:11.996Z,4.50
2018-01-23T06:33:40.392Z,4.50
2018-01-23T06:36:08.779Z,4.50
2018-01-23T06:38:37.525Z,4.50
2018-01-23T06:41:05.952Z,4.40
2018-01-23T06:43:34.397Z,4.40
2018-01-23T06:46:02.878Z,4.40
2018-01-23T06:48:31.238Z,4.40
2018-01-23T06:50:59.625Z,4.40
2018-01-23T06:53:28.102Z,4.40
2018-01-23T06:55:56.461Z,4.40
2018-01-23T06:58:24.863Z,4.40
2018-01-23T07:00:54.037Z,4.30
2018-01-23T07:03:22.449Z,4.30
2018-01-23T07:05:50.819Z,4.30
2018-01-23T07:08:19.837Z,4.20
2018-01-23T07:10:48.195Z,4.20
2018-01-23T07:13:16.547Z,4.30
2018-01-23T07:15:45.164Z,4.30
2018-01-23T07:18:13.823Z,4.30
2018-01-23T07:20:42.168Z,4.30
2018-01-23T07:23:11.531Z,4.10
2018-01-23T07:25:39.890Z,4.10
2018-01-23T07:28:09.118Z,4.10
2018-01-23T07:30:37.800Z,4.10
2018-01-23T07:33:06.158Z,4.10
2018-01-23T07:35:34.532Z,4.00
2018-01-23T07:38:02.933Z,4.00
2018-01-23T07:40:31.301Z,4.00
2018-01-23T07:42:59.669Z,4.00
2018-01-23T07:45:29.082Z,4.00
2018-01-23T07:47:57.467Z,4.00
2018-01-23T07:50:25.834Z,4.00
2018-01-23T07:52:54.520Z,4.10
2018-01-23T07:55:22.877Z,4.10
2018-01-23T07:57:51.227Z,4.30
2018-01-23T08:00:19.708Z,4.50
2018-01-23T08:02:48.842Z,4.50
2018-01-23T08:05:17.237Z,4.50
2018-01-23T08:07:45.646Z,4.50
2018-01-23T08:10:13.999Z,4.50
2018-01-23T08:12:42.353Z,4.60
2018-01-23T08:15:10.854Z,4.60
2018-01-23T08:17:39.522Z,4.70
2018-01-23T08:20:07.952Z,4.70
2018-01-23T08:22:36.702Z,4.80
2018-01-23T08:25:05.086Z,4.80
2018-01-23T08:27:33.449Z,4.80
2018-01-23T08:30:01.971Z,4.90
2018-01-23T08:32:30.352Z,4.90
2018-01-23T08:34:58.708Z,4.90
2018-01-23T08:37:27.552Z,4.90
2018-01-23T08:39:55.948Z,4.90
2018-01-23T08:42:24.615Z,4.90
2018-01-23T08:44:53.082Z,5.00
2018-01-23T08:47:21.494Z,5.00
2018-01-23T08:49:49.851Z,5.10
2018-01-23T08:52:18.338Z,5.00
2018-01-23T08:54:46.709Z,5.10
2018-01-23T08:57:15.079Z,5.20
2018-01-23T08:59:44.545Z,5.00
2018-01-23T09:02:12.904Z,5.00
2018-01-23T09:04:41.275Z,5.10
2018-01-23T09:07:09.770Z,5.00
2018-01-23T09:09:38.140Z,5.10
2018-01-23T09:12:06.502Z,5.10
2018-01-23T09:14:35.233Z,5.10
2018-01-23T09:17:03.599Z,5.10
2018-01-23T09:19:31.974Z,5.10
2018-01-23T09:22:00.755Z,5.10
2018-01-23T09:24:29.142Z,5.10
2018-01-23T09:26:57.519Z,5.10
2018-01-23T09:29:26.211Z,5.10
2018-01-23T09:31:54.622Z,5.00
2018-01-23T09:34:23.746Z,5.00
2018-01-23T09:36:52.266Z,5.00
2018-01-23T09:39:20.650Z,5.10
2018-01-23T09:41:49.072Z,5.10
2018-01-23T09:44:18.345Z,5.10
2018-01-23T09:46:46.726Z,5.20
2018-01-23T09:49:15.112Z,5.20
2018-01-23T09:51:44.558Z,5.20
2018-01-23T09:54:12.933Z,5.30
2018-01-23T09:56:41.365Z,5.20
2018-01-23T09:59:09.767Z,5.30
2018-01-23T10:01:38.134Z,5.30
2018-01-23T10:04:09.209Z,5.30
2018-01-23T10:06:37.736Z,5.40
2018-01-23T10:09:06.113Z,5.40
2018-01-23T10:11:34.479Z,5.30
2018-01-23T10:14:02.963Z,5.40
2018-01-23T10:16:31.329Z,5.40
2018-01-23T10:18:59.746Z,5.30
2018-01-23T10:21:28.646Z,5.40
2018-01-23T10:23:57.833Z,5.40
2018-01-23T10:26:26.217Z,5.40
2018-01-23T10:28:55.902Z,5.50
2018-01-23T10:31:24.254Z,5.50
2018-01-23T10:33:52.663Z,5.60
2018-01-23T10:36:21.417Z,5.50
2018-01-23T10:38:50.554Z,5.70
2018-01-23T10:41:18.937Z,5.70
2018-01-23T10:43:47.482Z,5.80
2018-01-23T10:46:15.982Z,5.70
2018-01-23T10:48:45.106Z,5.80
2018-01-23T10:51:14.490Z,5.80
2018-01-23T10:53:42.840Z,5.70
2018-01-23T10:56:11.202Z,5.80
2018-01-23T10:58:40.458Z,5.90
2018-01-23T11:01:08.824Z,5.90
2018-01-23T11:03:37.180Z,5.80
2018-01-23T11:06:05.813Z,5.90
2018-01-23T11:08:34.948Z,5.90
2018-01-23T11:11:03.572Z,5.90
2018-01-23T11:13:32.352Z,5.80
2018-01-23T11:16:00.718Z,5.90
2018-01-23T11:18:29.157Z,5.90
2018-01-23T11:20:57.649Z,6.00
2018-01-23T11:23:26.820Z,5.90
2018-01-23T11:25:55.327Z,5.90
2018-01-23T11:28:23.935Z,5.90
2018-01-23T11:30:53.097Z,6.00
2018-01-23T11:33:21.463Z,6.20
2018-01-23T11:35:50.694Z,6.20
2018-01-23T11:38:19.112Z,6.10
2018-01-23T11:40:47.593Z,6.20
2018-01-23T11:43:16.004Z,6.30
2018-01-23T11:45:45.187Z,6.40
2018-01-23T11:48:13.817Z,6.40
2018-01-23T11:50:42.442Z,6.50
2018-01-23T11:53:10.871Z,6.50
2018-01-23T11:55:39.286Z,6.50
2018-01-23T11:58:09.106Z,6.60
2018-01-23T12:00:37.781Z,6.60
2018-01-23T12:03:06.146Z,6.70
2018-01-23T12:05:34.618Z,6.70
2018-01-23T12:08:03.590Z,7.00
2018-01-23T12:10:32.002Z,7.00
2018-01-23T12:13:00.514Z,7.00
2018-01-23T12:15:29.014Z,7.00
2018-01-23T12:17:58.147Z,6.90
2018-01-23T12:20:26.730Z,6.90
2018-01-23T12:22:55.146Z,6.90
2018-01-23T12:25:23.616Z,6.90
2018-01-23T12:27:52.224Z,6.90
2018-01-23T12:30:20.588Z,6.90
2018-01-23T12:32:48.943Z,6.90
2018-01-23T12:35:17.341Z,6.90
2018-01-23T12:37:45.742Z,6.90
2018-01-23T12:40:14.972Z,6.80
2018-01-23T12:42:43.507Z,6.80
2018-01-23T12:45:11.884Z,6.90
2018-01-23T12:47:40.237Z,6.90
2018-01-23T12:50:08.846Z,6.90
2018-01-23T12:52:37.209Z,7.00
2018-01-23T12:55:05.580Z,7.00
2018-01-23T12:57:34.054Z,7.20
2018-01-23T13:00:02.436Z,7.20
2018-01-23T13:02:30.810Z,7.10
2018-01-23T13:04:59.433Z,7.20
2018-01-23T13:07:27.811Z,7.20
2018-01-23T13:09:56.438Z,7.20
2018-01-23T13:12:25.079Z,7.20
2018-01-23T13:14:53.870Z,7.20
2018-01-23T13:17:22.373Z,7.20
2018-01-23T13:19:52.553Z,7.20
2018-01-23T13:22:20.933Z,7.20
2018-01-23T13:24:49.306Z,7.20
2018-01-23T13:27:18.390Z,7.30
2018-01-23T13:29:47.086Z,7.30
2018-01-23T13:32:15.436Z,7.30
2018-01-23T13:34:44.028Z,7.40
2018-01-23T13:37:12.389Z,7.30
2018-01-23T13:39:40.809Z,7.30
2018-01-23T13:42:09.216Z,7.40
2018-01-23T13:44:37.555Z,7.40
2018-01-23T13:47:05.902Z,7.40
2018-01-23T13:49:34.680Z,7.40
2018-01-23T13:52:03.843Z,7.50
2018-01-23T13:54:32.213Z,7.50
2018-01-23T13:57:00.744Z,7.50
2018-01-23T13:59:29.124Z,7.50
2018-01-23T14:01:57.548Z,7.50
2018-01-23T14:04:26.047Z,7.50
2018-01-23T14:06:54.387Z,7.50
2018-01-23T14:09:22.739Z,7.50
2018-01-23T14:11:51.889Z,7.50
2018-01-23T14:14:20.851Z,7.50
2018-01-23T14:16:49.538Z,7.50
2018-01-23T14:19:18.195Z,7.40
2018-01-23T14:21:47.317Z,7.40
2018-01-23T14:24:15.674Z,7.40
2018-01-23T14:26:44.059Z,7.40
2018-01-23T14:29:12.407Z,7.40
2018-01-23T14:31:41.096Z,7.50
2018-01-23T14:34:09.539Z,7.40
2018-01-23T14:36:37.898Z,7.50
2018-01-23T14:39:06.252Z,7.40
2018-01-23T14:41:36.005Z,7.40
2018-01-23T14:44:05.390Z,7.50
2018-01-23T14:46:33.761Z,7.40
2018-01-23T14:49:02.371Z,7.40
2018-01-23T14:51:30.738Z,7.40
2018-01-23T14:53:59.195Z,7.50
2018-01-23T14:56:27.611Z,7.50
2018-01-23T14:58:55.960Z,7.50
2018-01-23T15:01:24.374Z,7.40
2018-01-23T15:03:52.763Z,7.50
2018-01-23T15:06:21.327Z,7.40
2018-01-23T15:08:50.467Z,7.50
2018-01-23T15:11:19.750Z,7.50
2018-01-23T15:13:48.205Z,7.50
2018-01-23T15:16:16.549Z,7.50
2018-01-23T15:18:44.956Z,7.50
2018-01-23T15:21:13.307Z,7.40
2018-01-23T15:23:41.638Z,7.40
2018-01-23T15:26:10.306Z,7.40
2018-01-23T15:28:38.652Z,7.40
2018-01-23T15:31:07.260Z,7.40
2018-01-23T15:33:35.954Z,7.40
2018-01-23T15:36:04.313Z,7.30
2018-01-23T15:38:32.677Z,7.30
2018-01-23T15:41:01.413Z,7.30
2018-01-23T15:43:29.814Z,7.30
2018-01-23T15:45:58.951Z,7.20
2018-01-23T15:48:27.451Z,7.20
2018-01-23T15:50:55.934Z,7.10
2018-01-23T15:53:24.310Z,7.00
2018-01-23T15:55:52.873Z,7.00
2018-01-23T15:58:21.224Z,6.90
2018-01-23T16:00:50.344Z,6.80
2018-01-23T16:03:19.054Z,6.80
2018-01-23T16:05:47.412Z,6.90
2018-01-23T16:08:15.766Z,6.80
2018-01-23T16:10:44.477Z,6.80
2018-01-23T16:13:12.857Z,6.70
2018-01-23T16:15:41.232Z,6.80
2018-01-23T16:18:09.738Z,6.70
2018-01-23T16:20:38.519Z,6.70
2018-01-23T16:23:06.898Z,6.70
2018-01-23T16:25:35.344Z,6.70
2018-01-23T16:28:03.741Z,6.70
2018-01-23T16:30:32.146Z,6.80
2018-01-23T16:33:01.074Z,6.70
2018-01-23T16:35:30.647Z,6.70
2018-01-23T16:37:59.010Z,6.70
2018-01-23T16:40:27.419Z,6.70
2018-01-23T16:42:55.773Z,6.80
2018-01-23T16:45:24.191Z,6.70
2018-01-23T16:47:53.483Z,6.60
2018-01-23T16:50:22.659Z,6.70
2018-01-23T16:52:51.030Z,6.80
2018-01-23T16:55:19.714Z,6.90
2018-01-23T16:57:48.123Z,6.90
2018-01-23T17:00:17.261Z,6.90
2018-01-23T17:02:45.756Z,6.90
2018-01-23T17:05:14.114Z,6.90
2018-01-23T17:07:42.473Z,6.90
2018-01-23T17:10:12.059Z,6.90
2018-01-23T17:12:40.429Z,6.90
2018-01-23T17:15:08.788Z,6.90
2018-01-23T17:17:37.404Z,6.90
2018-01-23T17:20:06.600Z,6.90
2018-01-23T17:22:36.115Z,6.80
2018-01-23T17:25:05.294Z,6.90
2018-01-23T17:27:33.676Z,6.80
2018-01-23T17:30:02.073Z,6.90
2018-01-23T17:32:31.235Z,6.80
2018-01-23T17:35:00.633Z,6.80
2018-01-23T17:37:29.093Z,6.80
2018-01-23T17:39:57.696Z,6.90
2018-01-23T17:42:26.041Z,7.00
2018-01-23T17:44:54.380Z,7.00
2018-01-23T17:47:22.767Z,7.00
2018-01-23T17:49:51.168Z,7.00
2018-01-23T17:52:19.516Z,7.00
2018-01-23T17:54:48.273Z,7.00
2018-01-23T17:57:16.617Z,6.90
2018-01-23T17:59:44.999Z,7.00
2018-01-23T18:02:13.473Z,6.90
2018-01-23T18:04:41.830Z,6.90
2018-01-23T18:07:10.956Z,6.90
2018-01-23T18:09:39.607Z,6.90
2018-01-23T18:12:08.746Z,6.80
2018-01-23T18:14:37.130Z,6.80
2018-01-23T18:17:05.542Z,6.90
2018-01-23T18:19:33.908Z,6.80
2018-01-23T18:22:02.262Z,6.90
2018-01-23T18:24:30.789Z,6.80
2018-01-23T18:26:59.155Z,6.70
2018-01-23T18:29:27.510Z,6.80
2018-01-23T18:31:56.100Z,6.90
2018-01-23T18:34:24.481Z,6.80
2018-01-23T18:36:52.883Z,6.90
2018-01-23T18:39:21.361Z,6.80
2018-01-23T18:41:49.713Z,6.90
2018-01-23T18:44:18.068Z,6.80
2018-01-23T18:46:46.456Z,6.80
2018-01-23T18:49:14.905Z,6.90
2018-01-23T18:51:43.269Z,6.90
2018-01-23T18:54:12.429Z,6.90
2018-01-23T18:56:40.776Z,6.90
2018-01-23T18:59:09.131Z,6.90
2018-01-23T19:01:37.593Z,6.90
2018-01-23T19:04:05.971Z,7.00
2018-01-23T19:06:34.331Z,7.00
2018-01-23T19:09:02.730Z,7.00
2018-01-23T19:11:31.147Z,7.00
2018-01-23T19:13:59.562Z,7.00
2018-01-23T19:16:28.238Z,7.00
2018-01-23T19:18:56.586Z,7.00
2018-01-23T19:21:24.936Z,7.00
2018-01-23T19:23:54.611Z,7.00
2018-01-23T19:26:22.967Z,6.90
2018-01-23T19:28:51.309Z,6.90
2018-01-23T19:31:20.490Z,6.90
2018-01-23T19:33:48.834Z,6.90
2018-01-23T19:36:17.607Z,6.80
2018-01-23T19:38:46.444Z,6.90
2018-01-23T19:41:14.869Z,6.70
2018-01-23T19:43:43.216Z,6.80
2018-01-23T19:46:12.516Z,6.70
2018-01-23T19:48:41.638Z,6.70
2018-01-23T19:51:10.061Z,6.70
2018-01-23T19:53:38.740Z,6.70
2018-01-23T19:56:07.104Z,6.70
2018-01-23T19:58:35.461Z,6.70
2018-01-23T20:01:04.029Z,6.70
2018-01-23T20:03:33.250Z,6.80
2018-01-23T20:06:01.603Z,6.70
2018-01-23T20:08:30.952Z,6.70
2018-01-23T20:10:59.299Z,6.70
2018-01-23T20:13:27.837Z,6.70
2018-01-23T20:15:56.567Z,6.70
2018-01-23T20:18:24.911Z,6.70
2018-01-23T20:20:53.262Z,6.70
2018-01-23T20:23:21.797Z,6.70
2018-01-23T20:25:50.149Z,6.60
2018-01-23T20:28:18.528Z,6.70
2018-01-23T20:30:47.877Z,6.70
2018-01-23T20:33:16.221Z,6.60
2018-01-23T20:35:45.345Z,6.60
2018-01-23T20:38:13.841Z,6.60
2018-01-23T20:40:42.226Z,6.60
2018-01-23T20:43:10.897Z,6.70
2018-01-23T20:45:39.405Z,6.60
2018-01-23T20:48:07.989Z,6.60
2018-01-23T20:50:37.164Z,6.70
2018-01-23T20:53:05.764Z,6.70
2018-01-23T20:55:34.379Z,6.70
2018-01-23T20:58:02.752Z,6.70
2018-01-23T21:00:31.243Z,6.80
2018-01-23T21:03:00.350Z,6.80
2018-01-23T21:05:29.488Z,6.80
2018-01-23T21:07:58.847Z,6.80
2018-01-23T21:10:27.959Z,6.80
2018-01-23T21:12:56.299Z,6.80
2018-01-23T21:15:25.072Z,6.90
2018-01-23T21:17:53.759Z,6.80
2018-01-23T21:20:22.110Z,6.90
2018-01-23T21:22:51.279Z,6.80
2018-01-23T21:25:19.640Z,6.80
2018-01-23T21:27:48.908Z,6.80
2018-01-23T21:30:17.591Z,6.80
2018-01-23T21:32:45.951Z,6.80
2018-01-23T21:35:14.299Z,6.80
2018-01-23T21:37:43.638Z,6.80
2018-01-23T21:40:11.988Z,6.80
2018-01-23T21:42:40.364Z,6.80
2018-01-23T21:45:08.953Z,6.80
2018-01-23T21:47:37.313Z,6.90
2018-01-23T21:50:06.426Z,6.80
2018-01-23T21:52:35.113Z,6.80
2018-01-23T21:55:03.489Z,6.80
2018-01-23T21:57:31.824Z,6.80
2018-01-23T22:00:00.349Z,6.80
2018-01-23T22:02:28.704Z,6.90
2018-01-23T22:04:57.848Z,6.90
2018-01-23T22:07:26.839Z,6.90
2018-01-23T22:09:55.188Z,6.90
2018-01-23T22:12:23.539Z,7.00
2018-01-23T22:14:52.424Z,6.90
2018-01-23T22:17:20.772Z,7.00
2018-01-23T22:19:49.798Z,6.90
2018-01-23T22:22:18.955Z,7.00
2018-01-23T22:24:47.307Z,6.90
2018-01-23T22:27:15.643Z,6.90
2018-01-23T22:29:44.204Z,6.90
2018-01-23T22:32:12.738Z,7.00
2018-01-23T22:34:41.856Z,6.90
2018-01-23T22:37:10.266Z,6.90
2018-01-23T22:39:38.621Z,6.90
2018-01-23T22:42:06.968Z,6.90
2018-01-23T22:44:36.209Z,6.90
2018-01-23T22:47:04.648Z,6.90
2018-01-23T22:49:33.051Z,6.90
2018-01-23T22:52:01.448Z,6.90
2018-01-23T22:54:29.805Z,6.90
2018-01-23T22:56:58.197Z,6.80
2018-01-23T22:59:26.583Z,6.80
2018-01-23T23:01:54.924Z,6.80
2018-01-23T23:04:23.267Z,6.80
2018-01-23T23:06:52.253Z,6.90
2018-01-23T23:09:20.610Z,6.80
2018-01-23T23:11:49.736Z,6.90
2018-01-23T23:14:18.308Z,6.90
2018-01-23T23:16:46.664Z,6.90
2018-01-23T23:19:15.008Z,6.90
2018-01-23T23:21:43.800Z,7.00
2018-01-23T23:24:12.139Z,7.00
2018-01-23T23:26:40.526Z,7.00
2018-01-23T23:29:08.918Z,7.00
2018-01-23T23:31:38.152Z,7.00
2018-01-23T23:34:06.607Z,7.00
2018-01-23T23:36:35.956Z,7.00
2018-01-23T23:39:04.338Z,7.00
2018-01-23T23:41:32.702Z,7.00
2018-01-23T23:44:01.085Z,7.00
2018-01-23T23:46:29.467Z,6.90
2018-01-23T23:48:58.886Z,6.90
2018-01-23T23:51:27.277Z,6.90
2018-01-23T23:53:55.637Z,7.00
2018-01-23T23:56:23.983Z,6.90
2018-01-23T23:58:52.590Z,7.00
